sensor_id;sensor_type;location;lat;lon;timestamp;pressure;altitude;pressure_sealevel;temperature;humidity
48404;BME280;34202;52.536;6.042;2023-04-01T00:04:22;99130.55;;;9.97;100.00
48404;BME280;34202;52.536;6.042;2023-04-01T00:09:22;99130.36;;;9.97;100.00
48404;BME280;34202;52.536;6.042;2023-04-01T00:14:23;99129.84;;;9.98;100.00
48404;BME280;34202;52.536;6.042;2023-04-01T00:19:23;99133.83;;;9.98;100.00
48404;BME280;34202;52.536;6.042;2023-04-01T00:24:24;99134.36;;;9.98;100.00
48404;BME280;34202;52.536;6.042;2023-04-01T00:29:25;99136.27;;;9.98;100.00
48404;BME280;34202;52.536;6.042;2023-04-01T00:34:29;99137.15;;;9.97;100.00
48404;BME280;34202;52.536;6.042;2023-04-01T00:39:29;99135.24;;;9.97;100.00
48404;BME280;34202;52.536;6.042;2023-04-01T00:44:31;99137.85;;;9.97;100.00
48404;BME280;34202;52.536;6.042;2023-04-01T00:49:33;99136.48;;;9.96;100.00
48404;BME280;34202;52.536;6.042;2023-04-01T00:54:35;99140.97;;;9.97;100.00
48404;BME280;34202;52.536;6.042;2023-04-01T00:59:37;99139.07;;;9.97;100.00
48404;BME280;34202;52.536;6.042;2023-04-01T01:04:39;99143.40;;;9.97;100.00
48404;BME280;34202;52.536;6.042;2023-04-01T01:14:54;99146.02;;;9.98;100.00
48404;BME280;34202;52.536;6.042;2023-04-01T01:30:22;99150.16;;;9.98;100.00
48404;BME280;34202;52.536;6.042;2023-04-01T01:35:35;99151.04;;;9.97;100.00
48404;BME280;34202;52.536;6.042;2023-04-01T01:40:37;99155.88;;;9.99;100.00
48404;BME280;34202;52.536;6.042;2023-04-01T01:45:40;99158.31;;;9.99;100.00
48404;BME280;34202;52.536;6.042;2023-04-01T01:50:43;99159.02;;;9.99;100.00
48404;BME280;34202;52.536;6.042;2023-04-01T01:55:45;99160.08;;;9.98;100.00
48404;BME280;34202;52.536;6.042;2023-04-01T02:00:48;99163.90;;;9.98;100.00
48404;BME280;34202;52.536;6.042;2023-04-01T02:05:51;99168.94;;;9.98;100.00
48404;BME280;34202;52.536;6.042;2023-04-01T02:10:58;99172.22;;;9.99;100.00
48404;BME280;34202;52.536;6.042;2023-04-01T02:16:01;99177.41;;;10.00;100.00
48404;BME280;34202;52.536;6.042;2023-04-01T02:21:04;99180.55;;;10.00;100.00
48404;BME280;34202;52.536;6.042;2023-04-01T02:26:06;99185.59;;;10.00;100.00
48404;BME280;34202;52.536;6.042;2023-04-01T02:31:08;99186.80;;;9.99;100.00
48404;BME280;34202;52.536;6.042;2023-04-01T02:36:10;99190.29;;;9.99;100.00
48404;BME280;34202;52.536;6.042;2023-04-01T02:41:12;99193.95;;;9.98;100.00
48404;BME280;34202;52.536;6.042;2023-04-01T02:46:12;99194.50;;;9.98;100.00
48404;BME280;34202;52.536;6.042;2023-04-01T02:51:12;99198.32;;;9.97;100.00
48404;BME280;34202;52.536;6.042;2023-04-01T02:56:12;99200.06;;;9.97;100.00
48404;BME280;34202;52.536;6.042;2023-04-01T03:01:13;99203.17;;;9.98;100.00
48404;BME280;34202;52.536;6.042;2023-04-01T03:06:14;99206.83;;;9.98;100.00
48404;BME280;34202;52.536;6.042;2023-04-01T03:11:14;99212.39;;;9.98;100.00
48404;BME280;34202;52.536;6.042;2023-04-01T03:16:15;99214.30;;;9.97;100.00
48404;BME280;34202;52.536;6.042;2023-04-01T03:21:16;99220.20;;;9.98;100.00
48404;BME280;34202;52.536;6.042;2023-04-01T03:26:18;99224.38;;;9.98;100.00
48404;BME280;34202;52.536;6.042;2023-04-01T03:31:18;99232.17;;;9.99;100.00
48404;BME280;34202;52.536;6.042;2023-04-01T03:36:18;99238.77;;;10.00;100.00
48404;BME280;34202;52.536;6.042;2023-04-01T03:41:19;99243.30;;;10.00;100.00
48404;BME280;34202;52.536;6.042;2023-04-01T03:46:19;99243.80;;;10.00;100.00
48404;BME280;34202;52.536;6.042;2023-04-01T03:51:20;99250.07;;;9.99;100.00
48404;BME280;34202;52.536;6.042;2023-04-01T03:56:20;99250.95;;;9.99;100.00
48404;BME280;34202;52.536;6.042;2023-04-01T04:01:21;99256.02;;;9.98;100.00
48404;BME280;34202;52.536;6.042;2023-04-01T04:06:22;99261.77;;;9.96;100.00
48404;BME280;34202;52.536;6.042;2023-04-01T04:11:23;99265.08;;;9.96;100.00
48404;BME280;34202;52.536;6.042;2023-04-01T04:16:23;99267.51;;;9.96;100.00
48404;BME280;34202;52.536;6.042;2023-04-01T04:21:23;99271.17;;;9.95;100.00
48404;BME280;34202;52.536;6.042;2023-04-01T04:26:24;99276.39;;;9.95;100.00
48404;BME280;34202;52.536;6.042;2023-04-01T04:31:24;99282.83;;;9.94;100.00
48404;BME280;34202;52.536;6.042;2023-04-01T04:36:25;99288.38;;;9.95;100.00
48404;BME280;34202;52.536;6.042;2023-04-01T04:41:26;99287.00;;;9.94;100.00
48404;BME280;34202;52.536;6.042;2023-04-01T04:46:26;99294.29;;;9.95;100.00
48404;BME280;34202;52.536;6.042;2023-04-01T04:51:26;99300.73;;;9.95;100.00
48404;BME280;34202;52.536;6.042;2023-04-01T04:56:27;99310.27;;;9.95;100.00
48404;BME280;34202;52.536;6.042;2023-04-01T05:01:27;99315.67;;;9.94;100.00
48404;BME280;34202;52.536;6.042;2023-04-01T05:06:27;99319.33;;;9.95;100.00
48404;BME280;34202;52.536;6.042;2023-04-01T05:11:29;99324.89;;;9.94;100.00
48404;BME280;34202;52.536;6.042;2023-04-01T05:16:29;99331.13;;;9.95;100.00
48404;BME280;34202;52.536;6.042;2023-04-01T05:21:31;99335.48;;;9.95;100.00
48404;BME280;34202;52.536;6.042;2023-04-01T05:26:31;99342.45;;;9.94;100.00
48404;BME280;34202;52.536;6.042;2023-04-01T05:31:32;99348.89;;;9.93;100.00
48404;BME280;34202;52.536;6.042;2023-04-01T05:36:32;99356.52;;;9.94;100.00
48404;BME280;34202;52.536;6.042;2023-04-01T05:41:36;99361.90;;;9.94;100.00
48404;BME280;34202;52.536;6.042;2023-04-01T05:46:36;99367.80;;;9.95;100.00
48404;BME280;34202;52.536;6.042;2023-04-01T05:51:37;99372.14;;;9.96;100.00
48404;BME280;34202;52.536;6.042;2023-04-01T05:56:37;99376.45;;;9.98;100.00
48404;BME280;34202;52.536;6.042;2023-04-01T06:01:37;99386.86;;;9.99;100.00
48404;BME280;34202;52.536;6.042;2023-04-01T06:06:38;99393.59;;;10.02;100.00
48404;BME280;34202;52.536;6.042;2023-04-01T06:16:46;99404.33;;;10.06;100.00
48404;BME280;34202;52.536;6.042;2023-04-01T06:22:05;99411.41;;;10.09;100.00
48404;BME280;34202;52.536;6.042;2023-04-01T06:53:10;99446.70;;;10.21;100.00
48404;BME280;34202;52.536;6.042;2023-04-01T06:58:19;99452.60;;;10.22;100.00
48404;BME280;34202;52.536;6.042;2023-04-01T07:03:32;99462.02;;;10.20;100.00
48404;BME280;34202;52.536;6.042;2023-04-01T07:08:35;99467.75;;;10.20;100.00
48404;BME280;34202;52.536;6.042;2023-04-01T07:14:10;99474.23;;;10.16;100.00
48404;BME280;34202;52.536;6.042;2023-04-01T07:19:08;99484.02;;;10.13;100.00
48404;BME280;34202;52.536;6.042;2023-04-01T07:24:17;99491.52;;;10.10;100.00
48404;BME280;34202;52.536;6.042;2023-04-01T07:29:20;99501.95;;;10.10;100.00
48404;BME280;34202;52.536;6.042;2023-04-01T07:34:40;99507.18;;;10.09;100.00
48404;BME280;34202;52.536;6.042;2023-04-01T07:44:59;99521.85;;;10.18;100.00
48404;BME280;34202;52.536;6.042;2023-04-01T07:50:06;99529.66;;;10.18;100.00
48404;BME280;34202;52.536;6.042;2023-04-01T07:55:22;99539.05;;;10.19;100.00
48404;BME280;34202;52.536;6.042;2023-04-01T08:00:27;99551.18;;;10.21;100.00
48404;BME280;34202;52.536;6.042;2023-04-01T08:05:29;99556.73;;;10.23;100.00
48404;BME280;34202;52.536;6.042;2023-04-01T08:15:47;99569.52;;;10.30;100.00
48404;BME280;34202;52.536;6.042;2023-04-01T08:25:51;99583.14;;;10.42;100.00
48404;BME280;34202;52.536;6.042;2023-04-01T08:31:04;99592.60;;;10.50;100.00
48404;BME280;34202;52.536;6.042;2023-04-01T08:36:10;99601.33;;;10.60;100.00
48404;BME280;34202;52.536;6.042;2023-04-01T08:56:51;99623.54;;;11.04;100.00
48404;BME280;34202;52.536;6.042;2023-04-01T09:02:04;99632.36;;;11.07;100.00
48404;BME280;34202;52.536;6.042;2023-04-01T09:27:56;99668.41;;;11.07;100.00
48404;BME280;34202;52.536;6.042;2023-04-01T09:38:22;99680.77;;;11.08;100.00
48404;BME280;34202;52.536;6.042;2023-04-01T10:04:00;99722.66;;;10.98;100.00
48404;BME280;34202;52.536;6.042;2023-04-01T10:50:53;99773.55;;;11.36;100.00
48404;BME280;34202;52.536;6.042;2023-04-01T11:17:10;99792.86;;;11.75;100.00
48404;BME280;34202;52.536;6.042;2023-04-01T11:32:39;99818.15;;;11.86;100.00
48404;BME280;34202;52.536;6.042;2023-04-01T11:43:09;99833.12;;;11.89;100.00
48404;BME280;34202;52.536;6.042;2023-04-01T11:48:45;99840.01;;;11.96;100.00
48404;BME280;34202;52.536;6.042;2023-04-01T11:53:41;99853.08;;;12.08;100.00
48404;BME280;34202;52.536;6.042;2023-04-01T12:03:51;99873.52;;;12.17;100.00
48404;BME280;34202;52.536;6.042;2023-04-01T12:08:57;99879.92;;;12.09;100.00
48404;BME280;34202;52.536;6.042;2023-04-01T12:14:21;99894.70;;;12.00;100.00
48404;BME280;34202;52.536;6.042;2023-04-01T12:19:26;99902.65;;;11.91;100.00
48404;BME280;34202;52.536;6.042;2023-04-01T12:24:38;99913.70;;;11.86;100.00
48404;BME280;34202;52.536;6.042;2023-04-01T12:29:54;99929.67;;;11.77;100.00
48404;BME280;34202;52.536;6.042;2023-04-01T12:40:31;99943.30;;;11.46;100.00
48404;BME280;34202;52.536;6.042;2023-04-01T12:45:33;99954.77;;;11.31;100.00
48404;BME280;34202;52.536;6.042;2023-04-01T12:50:46;99961.35;;;11.18;100.00
48404;BME280;34202;52.536;6.042;2023-04-01T12:55:52;99973.68;;;11.03;100.00
48404;BME280;34202;52.536;6.042;2023-04-01T13:11:18;100001.83;;;10.65;100.00
48404;BME280;34202;52.536;6.042;2023-04-01T13:16:39;100013.02;;;10.58;100.00
48404;BME280;34202;52.536;6.042;2023-04-01T13:32:01;100040.52;;;10.58;100.00
48404;BME280;34202;52.536;6.042;2023-04-01T13:42:10;100057.02;;;10.59;100.00
48404;BME280;34202;52.536;6.042;2023-04-01T14:34:00;100145.91;;;10.02;100.00
48404;BME280;34202;52.536;6.042;2023-04-01T14:54:17;100186.09;;;9.91;100.00
48404;BME280;34202;52.536;6.042;2023-04-01T15:09:42;100221.91;;;9.80;100.00
48404;BME280;34202;52.536;6.042;2023-04-01T15:35:57;100274.17;;;9.53;100.00
48404;BME280;34202;52.536;6.042;2023-04-01T15:41:14;100288.41;;;9.50;100.00
48404;BME280;34202;52.536;6.042;2023-04-01T15:46:24;100300.55;;;9.45;100.00
48404;BME280;34202;52.536;6.042;2023-04-01T15:57:29;100325.02;;;9.36;100.00
48404;BME280;34202;52.536;6.042;2023-04-01T16:32:51;100400.27;;;9.10;100.00
48404;BME280;34202;52.536;6.042;2023-04-01T16:43:05;100420.19;;;9.02;100.00
48404;BME280;34202;52.536;6.042;2023-04-01T16:48:11;100431.44;;;8.97;100.00
48404;BME280;34202;52.536;6.042;2023-04-01T16:58:20;100454.97;;;8.89;100.00
48404;BME280;34202;52.536;6.042;2023-04-01T17:03:25;100470.02;;;8.83;100.00
48404;BME280;34202;52.536;6.042;2023-04-01T17:08:30;100482.47;;;8.78;100.00
48404;BME280;34202;52.536;6.042;2023-04-01T17:18:47;100502.20;;;8.72;100.00
48404;BME280;34202;52.536;6.042;2023-04-01T17:23:57;100519.53;;;8.70;100.00
48404;BME280;34202;52.536;6.042;2023-04-01T17:29:13;100524.88;;;8.67;100.00
48404;BME280;34202;52.536;6.042;2023-04-01T18:00:58;100608.52;;;8.40;100.00
48404;BME280;34202;52.536;6.042;2023-04-01T18:10:56;100640.85;;;8.32;100.00
48404;BME280;34202;52.536;6.042;2023-04-01T18:21:10;100664.83;;;8.23;100.00
48404;BME280;34202;52.536;6.042;2023-04-01T18:26:18;100682.95;;;8.17;100.00
48404;BME280;34202;52.536;6.042;2023-04-01T18:31:20;100695.66;;;8.08;100.00
48404;BME280;34202;52.536;6.042;2023-04-01T18:41:35;100720.97;;;7.98;100.00
48404;BME280;34202;52.536;6.042;2023-04-01T18:46:57;100730.95;;;7.92;100.00
48404;BME280;34202;52.536;6.042;2023-04-01T18:52:07;100747.64;;;7.85;100.00
48404;BME280;34202;52.536;6.042;2023-04-01T18:57:12;100756.86;;;7.78;100.00
48404;BME280;34202;52.536;6.042;2023-04-01T19:02:25;100769.94;;;7.72;100.00
48404;BME280;34202;52.536;6.042;2023-04-01T19:38:57;100855.09;;;7.42;100.00
48404;BME280;34202;52.536;6.042;2023-04-01T19:44:02;100861.29;;;7.30;100.00
48404;BME280;34202;52.536;6.042;2023-04-01T19:59:42;100894.60;;;7.17;100.00
48404;BME280;34202;52.536;6.042;2023-04-01T20:04:51;100912.31;;;7.12;100.00
48404;BME280;34202;52.536;6.042;2023-04-01T20:14:57;100943.26;;;7.02;100.00
48404;BME280;34202;52.536;6.042;2023-04-01T20:20:03;100953.83;;;6.96;100.00
48404;BME280;34202;52.536;6.042;2023-04-01T20:30:25;100975.88;;;6.84;100.00
48404;BME280;34202;52.536;6.042;2023-04-01T20:35:42;100986.69;;;6.81;100.00
48404;BME280;34202;52.536;6.042;2023-04-01T20:51:43;101026.55;;;6.63;100.00
48404;BME280;34202;52.536;6.042;2023-04-01T20:57:00;101035.38;;;6.57;100.00
48404;BME280;34202;52.536;6.042;2023-04-01T21:28:17;101102.67;;;6.33;100.00
48404;BME280;34202;52.536;6.042;2023-04-01T22:10:03;101186.84;;;6.03;100.00
48404;BME280;34202;52.536;6.042;2023-04-01T22:20:43;101205.91;;;5.95;100.00
48404;BME280;34202;52.536;6.042;2023-04-01T22:25:50;101215.50;;;5.92;100.00
48404;BME280;34202;52.536;6.042;2023-04-01T22:30:59;101225.08;;;5.90;100.00
48404;BME280;34202;52.536;6.042;2023-04-01T22:41:14;101239.94;;;5.84;100.00
48404;BME280;34202;52.536;6.042;2023-04-01T22:51:19;101252.44;;;5.75;100.00
48404;BME280;34202;52.536;6.042;2023-04-01T22:56:30;101264.73;;;5.71;100.00
48404;BME280;34202;52.536;6.042;2023-04-01T23:01:34;101273.27;;;5.69;100.00
48404;BME280;34202;52.536;6.042;2023-04-01T23:06:41;101278.23;;;5.67;100.00
48404;BME280;34202;52.536;6.042;2023-04-01T23:16:43;101296.80;;;5.65;100.00
48404;BME280;34202;52.536;6.042;2023-04-01T23:21:51;101303.80;;;5.62;100.00
48404;BME280;34202;52.536;6.042;2023-04-01T23:27:05;101315.63;;;5.60;100.00
48404;BME280;34202;52.536;6.042;2023-04-01T23:32:13;101325.05;;;5.57;100.00
48404;BME280;34202;52.536;6.042;2023-04-01T23:37:15;101332.52;;;5.54;100.00
48404;BME280;34202;52.536;6.042;2023-04-01T23:47:25;101350.67;;;5.50;100.00
48404;BME280;34202;52.536;6.042;2023-04-01T23:52:30;101360.30;;;5.48;100.00
48404;BME280;34202;52.536;6.042;2023-04-01T23:57:32;101366.81;;;5.47;100.00
